sensor_id;sensor_type;location;lat;lon;timestamp;P1;durP1;ratioP1;P2;durP2;ratioP2
10446;SDS011;5271;44.422;26.092;2023-04-15T00:02:16;1.20;;;1.20;;
10446;SDS011;5271;44.422;26.092;2023-04-15T00:04:44;1.20;;;1.20;;
10446;SDS011;5271;44.422;26.092;2023-04-15T00:07:10;1.10;;;1.10;;
10446;SDS011;5271;44.422;26.092;2023-04-15T00:09:37;1.10;;;1.10;;
10446;SDS011;5271;44.422;26.092;2023-04-15T00:12:04;1.10;;;1.10;;
10446;SDS011;5271;44.422;26.092;2023-04-15T00:14:32;1.10;;;1.10;;
10446;SDS011;5271;44.422;26.092;2023-04-15T00:16:59;1.10;;;1.10;;
10446;SDS011;5271;44.422;26.092;2023-04-15T00:19:27;1.10;;;1.10;;
10446;SDS011;5271;44.422;26.092;2023-04-15T00:21:54;1.10;;;1.10;;
10446;SDS011;5271;44.422;26.092;2023-04-15T00:24:22;1.10;;;1.10;;
10446;SDS011;5271;44.422;26.092;2023-04-15T00:26:49;1.00;;;1.00;;
10446;SDS011;5271;44.422;26.092;2023-04-15T00:29:16;1.20;;;1.20;;
10446;SDS011;5271;44.422;26.092;2023-04-15T00:31:43;1.17;;;1.17;;
10446;SDS011;5271;44.422;26.092;2023-04-15T00:34:10;1.10;;;1.10;;
10446;SDS011;5271;44.422;26.092;2023-04-15T00:36:38;1.10;;;1.10;;
10446;SDS011;5271;44.422;26.092;2023-04-15T00:39:05;1.10;;;1.10;;
10446;SDS011;5271;44.422;26.092;2023-04-15T00:41:32;1.10;;;1.10;;
10446;SDS011;5271;44.422;26.092;2023-04-15T00:43:59;1.10;;;1.10;;
10446;SDS011;5271;44.422;26.092;2023-04-15T00:46:27;1.10;;;1.10;;
10446;SDS011;5271;44.422;26.092;2023-04-15T00:48:54;1.10;;;1.10;;
10446;SDS011;5271;44.422;26.092;2023-04-15T00:51:21;1.10;;;1.10;;
10446;SDS011;5271;44.422;26.092;2023-04-15T00:53:49;1.10;;;1.10;;
10446;SDS011;5271;44.422;26.092;2023-04-15T00:56:17;1.10;;;1.10;;
10446;SDS011;5271;44.422;26.092;2023-04-15T00:58:45;1.10;;;1.10;;
10446;SDS011;5271;44.422;26.092;2023-04-15T01:01:13;1.10;;;1.10;;
10446;SDS011;5271;44.422;26.092;2023-04-15T01:03:40;1.10;;;1.10;;
10446;SDS011;5271;44.422;26.092;2023-04-15T01:06:07;1.13;;;1.13;;
10446;SDS011;5271;44.422;26.092;2023-04-15T01:08:34;1.10;;;1.10;;
10446;SDS011;5271;44.422;26.092;2023-04-15T01:11:02;1.10;;;1.10;;
10446;SDS011;5271;44.422;26.092;2023-04-15T01:13:29;1.10;;;1.10;;
10446;SDS011;5271;44.422;26.092;2023-04-15T01:15:59;1.10;;;1.10;;
10446;SDS011;5271;44.422;26.092;2023-04-15T01:18:26;1.20;;;1.20;;
10446;SDS011;5271;44.422;26.092;2023-04-15T01:20:54;1.10;;;1.10;;
10446;SDS011;5271;44.422;26.092;2023-04-15T01:23:21;1.10;;;1.10;;
10446;SDS011;5271;44.422;26.092;2023-04-15T01:25:49;1.10;;;1.10;;
10446;SDS011;5271;44.422;26.092;2023-04-15T01:28:18;1.20;;;1.20;;
10446;SDS011;5271;44.422;26.092;2023-04-15T01:30:45;1.10;;;1.10;;
10446;SDS011;5271;44.422;26.092;2023-04-15T01:33:12;1.10;;;1.10;;
10446;SDS011;5271;44.422;26.092;2023-04-15T01:35:40;1.10;;;1.10;;
10446;SDS011;5271;44.422;26.092;2023-04-15T01:38:08;1.10;;;1.10;;
10446;SDS011;5271;44.422;26.092;2023-04-15T01:40:36;1.20;;;1.20;;
10446;SDS011;5271;44.422;26.092;2023-04-15T01:43:04;1.10;;;1.10;;
10446;SDS011;5271;44.422;26.092;2023-04-15T01:45:31;1.00;;;1.00;;
10446;SDS011;5271;44.422;26.092;2023-04-15T01:47:58;1.10;;;1.10;;
10446;SDS011;5271;44.422;26.092;2023-04-15T01:50:25;1.20;;;1.20;;
10446;SDS011;5271;44.422;26.092;2023-04-15T01:52:52;1.20;;;1.20;;
10446;SDS011;5271;44.422;26.092;2023-04-15T01:55:19;1.20;;;1.20;;
10446;SDS011;5271;44.422;26.092;2023-04-15T01:57:46;1.20;;;1.20;;
10446;SDS011;5271;44.422;26.092;2023-04-15T02:00:14;1.10;;;1.10;;
10446;SDS011;5271;44.422;26.092;2023-04-15T02:02:41;1.20;;;1.20;;
10446;SDS011;5271;44.422;26.092;2023-04-15T02:05:08;1.10;;;1.10;;
10446;SDS011;5271;44.422;26.092;2023-04-15T02:07:35;1.20;;;1.20;;
10446;SDS011;5271;44.422;26.092;2023-04-15T02:10:02;1.10;;;1.10;;
10446;SDS011;5271;44.422;26.092;2023-04-15T02:12:29;1.10;;;1.10;;
10446;SDS011;5271;44.422;26.092;2023-04-15T02:14:56;1.20;;;1.20;;
10446;SDS011;5271;44.422;26.092;2023-04-15T02:17:24;1.20;;;1.20;;
10446;SDS011;5271;44.422;26.092;2023-04-15T02:19:51;1.10;;;1.10;;
10446;SDS011;5271;44.422;26.092;2023-04-15T02:22:18;1.10;;;1.10;;
10446;SDS011;5271;44.422;26.092;2023-04-15T02:24:45;1.20;;;1.20;;
10446;SDS011;5271;44.422;26.092;2023-04-15T02:27:14;1.10;;;1.10;;
10446;SDS011;5271;44.422;26.092;2023-04-15T02:29:42;1.20;;;1.20;;
10446;SDS011;5271;44.422;26.092;2023-04-15T02:32:09;1.20;;;1.20;;
10446;SDS011;5271;44.422;26.092;2023-04-15T02:34:38;1.20;;;1.20;;
10446;SDS011;5271;44.422;26.092;2023-04-15T02:37:06;1.20;;;1.20;;
10446;SDS011;5271;44.422;26.092;2023-04-15T02:39:33;1.20;;;1.20;;
10446;SDS011;5271;44.422;26.092;2023-04-15T02:42:00;1.23;;;1.23;;
10446;SDS011;5271;44.422;26.092;2023-04-15T02:44:27;1.20;;;1.20;;
10446;SDS011;5271;44.422;26.092;2023-04-15T02:46:55;1.10;;;1.10;;
10446;SDS011;5271;44.422;26.092;2023-04-15T02:49:22;1.27;;;1.27;;
10446;SDS011;5271;44.422;26.092;2023-04-15T02:51:51;1.20;;;1.20;;
10446;SDS011;5271;44.422;26.092;2023-04-15T02:54:18;1.30;;;1.30;;
10446;SDS011;5271;44.422;26.092;2023-04-15T02:56:46;1.20;;;1.20;;
10446;SDS011;5271;44.422;26.092;2023-04-15T02:59:14;1.20;;;1.20;;
10446;SDS011;5271;44.422;26.092;2023-04-15T03:01:41;1.20;;;1.20;;
10446;SDS011;5271;44.422;26.092;2023-04-15T03:04:07;1.20;;;1.20;;
10446;SDS011;5271;44.422;26.092;2023-04-15T03:06:34;1.20;;;1.20;;
10446;SDS011;5271;44.422;26.092;2023-04-15T03:09:02;1.20;;;1.20;;
10446;SDS011;5271;44.422;26.092;2023-04-15T03:11:29;1.30;;;1.30;;
10446;SDS011;5271;44.422;26.092;2023-04-15T03:13:56;1.20;;;1.20;;
10446;SDS011;5271;44.422;26.092;2023-04-15T03:16:23;1.20;;;1.20;;
10446;SDS011;5271;44.422;26.092;2023-04-15T03:18:50;1.23;;;1.23;;
10446;SDS011;5271;44.422;26.092;2023-04-15T03:21:17;1.20;;;1.20;;
10446;SDS011;5271;44.422;26.092;2023-04-15T03:23:44;1.20;;;1.20;;
10446;SDS011;5271;44.422;26.092;2023-04-15T03:26:23;1.20;;;1.20;;
10446;SDS011;5271;44.422;26.092;2023-04-15T03:28:53;1.20;;;1.20;;
10446;SDS011;5271;44.422;26.092;2023-04-15T03:31:20;1.30;;;1.30;;
10446;SDS011;5271;44.422;26.092;2023-04-15T03:33:46;1.30;;;1.30;;
10446;SDS011;5271;44.422;26.092;2023-04-15T03:36:13;1.30;;;1.30;;
10446;SDS011;5271;44.422;26.092;2023-04-15T03:38:40;1.30;;;1.30;;
10446;SDS011;5271;44.422;26.092;2023-04-15T03:41:07;1.30;;;1.30;;
10446;SDS011;5271;44.422;26.092;2023-04-15T03:43:36;1.30;;;1.30;;
10446;SDS011;5271;44.422;26.092;2023-04-15T03:46:03;1.30;;;1.30;;
10446;SDS011;5271;44.422;26.092;2023-04-15T03:48:30;1.30;;;1.30;;
10446;SDS011;5271;44.422;26.092;2023-04-15T03:50:57;1.30;;;1.30;;
10446;SDS011;5271;44.422;26.092;2023-04-15T03:53:23;1.30;;;1.30;;
10446;SDS011;5271;44.422;26.092;2023-04-15T03:55:50;1.40;;;1.40;;
10446;SDS011;5271;44.422;26.092;2023-04-15T03:58:17;1.30;;;1.30;;
10446;SDS011;5271;44.422;26.092;2023-04-15T04:00:46;1.30;;;1.30;;
10446;SDS011;5271;44.422;26.092;2023-04-15T04:03:14;1.30;;;1.30;;
10446;SDS011;5271;44.422;26.092;2023-04-15T04:05:41;1.30;;;1.30;;
10446;SDS011;5271;44.422;26.092;2023-04-15T04:08:08;1.40;;;1.40;;
10446;SDS011;5271;44.422;26.092;2023-04-15T04:10:37;1.33;;;1.33;;
10446;SDS011;5271;44.422;26.092;2023-04-15T04:13:04;1.30;;;1.30;;
10446;SDS011;5271;44.422;26.092;2023-04-15T04:15:31;1.30;;;1.30;;
10446;SDS011;5271;44.422;26.092;2023-04-15T04:18:00;1.30;;;1.30;;
10446;SDS011;5271;44.422;26.092;2023-04-15T04:20:27;1.30;;;1.30;;
10446;SDS011;5271;44.422;26.092;2023-04-15T04:22:56;1.30;;;1.30;;
10446;SDS011;5271;44.422;26.092;2023-04-15T04:25:22;1.40;;;1.40;;
10446;SDS011;5271;44.422;26.092;2023-04-15T04:27:49;1.37;;;1.37;;
10446;SDS011;5271;44.422;26.092;2023-04-15T04:30:16;1.40;;;1.40;;
10446;SDS011;5271;44.422;26.092;2023-04-15T04:32:43;1.40;;;1.40;;
10446;SDS011;5271;44.422;26.092;2023-04-15T04:35:11;1.40;;;1.40;;
10446;SDS011;5271;44.422;26.092;2023-04-15T04:37:38;1.30;;;1.30;;
10446;SDS011;5271;44.422;26.092;2023-04-15T04:40:06;1.30;;;1.30;;
10446;SDS011;5271;44.422;26.092;2023-04-15T04:42:34;1.30;;;1.30;;
10446;SDS011;5271;44.422;26.092;2023-04-15T04:45:01;1.20;;;1.20;;
10446;SDS011;5271;44.422;26.092;2023-04-15T04:47:28;1.30;;;1.30;;
10446;SDS011;5271;44.422;26.092;2023-04-15T04:49:55;1.30;;;1.30;;
10446;SDS011;5271;44.422;26.092;2023-04-15T04:52:24;1.30;;;1.30;;
10446;SDS011;5271;44.422;26.092;2023-04-15T04:54:50;1.23;;;1.23;;
10446;SDS011;5271;44.422;26.092;2023-04-15T04:57:17;1.30;;;1.30;;
10446;SDS011;5271;44.422;26.092;2023-04-15T04:59:44;1.30;;;1.30;;
10446;SDS011;5271;44.422;26.092;2023-04-15T05:02:11;1.30;;;1.30;;
10446;SDS011;5271;44.422;26.092;2023-04-15T05:04:38;1.30;;;1.30;;
10446;SDS011;5271;44.422;26.092;2023-04-15T05:07:05;1.30;;;1.30;;
10446;SDS011;5271;44.422;26.092;2023-04-15T05:09:34;1.20;;;1.20;;
10446;SDS011;5271;44.422;26.092;2023-04-15T05:12:01;1.30;;;1.30;;
10446;SDS011;5271;44.422;26.092;2023-04-15T05:14:28;1.20;;;1.20;;
10446;SDS011;5271;44.422;26.092;2023-04-15T05:16:56;1.20;;;1.20;;
10446;SDS011;5271;44.422;26.092;2023-04-15T05:19:23;1.30;;;1.30;;
10446;SDS011;5271;44.422;26.092;2023-04-15T05:21:49;1.30;;;1.30;;
10446;SDS011;5271;44.422;26.092;2023-04-15T05:24:16;1.30;;;1.30;;
10446;SDS011;5271;44.422;26.092;2023-04-15T05:26:45;1.30;;;1.30;;
10446;SDS011;5271;44.422;26.092;2023-04-15T05:29:12;1.30;;;1.30;;
10446;SDS011;5271;44.422;26.092;2023-04-15T05:31:38;1.30;;;1.30;;
10446;SDS011;5271;44.422;26.092;2023-04-15T05:34:06;1.27;;;1.27;;
10446;SDS011;5271;44.422;26.092;2023-04-15T05:36:32;1.30;;;1.30;;
10446;SDS011;5271;44.422;26.092;2023-04-15T05:38:59;1.30;;;1.30;;
10446;SDS011;5271;44.422;26.092;2023-04-15T05:41:26;1.40;;;1.40;;
10446;SDS011;5271;44.422;26.092;2023-04-15T05:43:54;1.30;;;1.30;;
10446;SDS011;5271;44.422;26.092;2023-04-15T05:46:21;1.40;;;1.40;;
10446;SDS011;5271;44.422;26.092;2023-04-15T05:48:48;1.30;;;1.30;;
10446;SDS011;5271;44.422;26.092;2023-04-15T05:51:15;1.40;;;1.40;;
10446;SDS011;5271;44.422;26.092;2023-04-15T05:53:42;1.37;;;1.37;;
10446;SDS011;5271;44.422;26.092;2023-04-15T05:56:10;1.40;;;1.40;;
10446;SDS011;5271;44.422;26.092;2023-04-15T05:58:37;1.40;;;1.40;;
10446;SDS011;5271;44.422;26.092;2023-04-15T06:01:05;1.50;;;1.50;;
10446;SDS011;5271;44.422;26.092;2023-04-15T06:03:32;1.47;;;1.47;;
10446;SDS011;5271;44.422;26.092;2023-04-15T06:05:59;1.40;;;1.40;;
10446;SDS011;5271;44.422;26.092;2023-04-15T06:08:26;1.40;;;1.40;;
10446;SDS011;5271;44.422;26.092;2023-04-15T06:10:53;1.40;;;1.40;;
10446;SDS011;5271;44.422;26.092;2023-04-15T06:13:20;1.40;;;1.40;;
10446;SDS011;5271;44.422;26.092;2023-04-15T06:15:47;1.33;;;1.33;;
10446;SDS011;5271;44.422;26.092;2023-04-15T06:18:15;1.40;;;1.40;;
10446;SDS011;5271;44.422;26.092;2023-04-15T06:20:42;1.33;;;1.33;;
10446;SDS011;5271;44.422;26.092;2023-04-15T06:23:09;1.20;;;1.20;;
10446;SDS011;5271;44.422;26.092;2023-04-15T06:25:36;1.30;;;1.30;;
10446;SDS011;5271;44.422;26.092;2023-04-15T06:28:03;1.30;;;1.30;;
10446;SDS011;5271;44.422;26.092;2023-04-15T06:30:30;1.20;;;1.20;;
10446;SDS011;5271;44.422;26.092;2023-04-15T06:32:57;1.37;;;1.37;;
10446;SDS011;5271;44.422;26.092;2023-04-15T06:35:25;1.40;;;1.40;;
10446;SDS011;5271;44.422;26.092;2023-04-15T06:37:52;1.23;;;1.23;;
10446;SDS011;5271;44.422;26.092;2023-04-15T06:40:19;1.30;;;1.30;;
10446;SDS011;5271;44.422;26.092;2023-04-15T06:42:46;1.30;;;1.30;;
10446;SDS011;5271;44.422;26.092;2023-04-15T06:45:13;1.30;;;1.30;;
10446;SDS011;5271;44.422;26.092;2023-04-15T06:47:40;1.30;;;1.30;;
10446;SDS011;5271;44.422;26.092;2023-04-15T06:50:07;1.30;;;1.30;;
10446;SDS011;5271;44.422;26.092;2023-04-15T06:52:36;1.20;;;1.20;;
10446;SDS011;5271;44.422;26.092;2023-04-15T06:55:04;1.30;;;1.30;;
10446;SDS011;5271;44.422;26.092;2023-04-15T06:57:32;1.30;;;1.30;;
10446;SDS011;5271;44.422;26.092;2023-04-15T06:59:58;1.30;;;1.30;;
10446;SDS011;5271;44.422;26.092;2023-04-15T07:02:25;1.40;;;1.40;;
10446;SDS011;5271;44.422;26.092;2023-04-15T07:04:52;1.37;;;1.37;;
10446;SDS011;5271;44.422;26.092;2023-04-15T07:07:19;1.30;;;1.30;;
10446;SDS011;5271;44.422;26.092;2023-04-15T07:09:47;1.30;;;1.30;;
10446;SDS011;5271;44.422;26.092;2023-04-15T07:12:14;1.40;;;1.40;;
10446;SDS011;5271;44.422;26.092;2023-04-15T07:14:41;1.30;;;1.30;;
10446;SDS011;5271;44.422;26.092;2023-04-15T07:17:08;1.40;;;1.40;;
10446;SDS011;5271;44.422;26.092;2023-04-15T07:19:35;1.30;;;1.30;;
10446;SDS011;5271;44.422;26.092;2023-04-15T07:22:02;1.20;;;1.20;;
10446;SDS011;5271;44.422;26.092;2023-04-15T07:24:29;1.30;;;1.30;;
10446;SDS011;5271;44.422;26.092;2023-04-15T07:26:58;1.30;;;1.30;;
10446;SDS011;5271;44.422;26.092;2023-04-15T07:29:25;1.30;;;1.30;;
10446;SDS011;5271;44.422;26.092;2023-04-15T07:31:52;1.30;;;1.30;;
10446;SDS011;5271;44.422;26.092;2023-04-15T07:34:21;1.40;;;1.40;;
10446;SDS011;5271;44.422;26.092;2023-04-15T07:36:48;1.30;;;1.30;;
10446;SDS011;5271;44.422;26.092;2023-04-15T07:39:16;1.40;;;1.40;;
10446;SDS011;5271;44.422;26.092;2023-04-15T07:41:43;1.30;;;1.30;;
10446;SDS011;5271;44.422;26.092;2023-04-15T07:44:11;1.40;;;1.40;;
10446;SDS011;5271;44.422;26.092;2023-04-15T07:46:38;1.40;;;1.40;;
10446;SDS011;5271;44.422;26.092;2023-04-15T07:49:05;1.30;;;1.30;;
10446;SDS011;5271;44.422;26.092;2023-04-15T07:51:32;1.40;;;1.40;;
10446;SDS011;5271;44.422;26.092;2023-04-15T07:53:59;1.30;;;1.30;;
10446;SDS011;5271;44.422;26.092;2023-04-15T07:56:28;1.30;;;1.30;;
10446;SDS011;5271;44.422;26.092;2023-04-15T07:58:55;1.40;;;1.40;;
10446;SDS011;5271;44.422;26.092;2023-04-15T08:01:23;1.40;;;1.40;;
10446;SDS011;5271;44.422;26.092;2023-04-15T08:03:50;1.40;;;1.40;;
10446;SDS011;5271;44.422;26.092;2023-04-15T08:06:17;1.47;;;1.47;;
10446;SDS011;5271;44.422;26.092;2023-04-15T08:08:44;1.40;;;1.40;;
10446;SDS011;5271;44.422;26.092;2023-04-15T08:11:11;1.40;;;1.40;;
10446;SDS011;5271;44.422;26.092;2023-04-15T08:13:38;1.43;;;1.43;;
10446;SDS011;5271;44.422;26.092;2023-04-15T08:16:12;1.30;;;1.30;;
10446;SDS011;5271;44.422;26.092;2023-04-15T08:18:43;1.43;;;1.43;;
10446;SDS011;5271;44.422;26.092;2023-04-15T08:21:10;1.30;;;1.30;;
10446;SDS011;5271;44.422;26.092;2023-04-15T08:23:37;1.40;;;1.40;;
10446;SDS011;5271;44.422;26.092;2023-04-15T08:26:05;1.40;;;1.40;;
10446;SDS011;5271;44.422;26.092;2023-04-15T08:28:32;1.30;;;1.30;;
10446;SDS011;5271;44.422;26.092;2023-04-15T08:30:59;1.30;;;1.30;;
10446;SDS011;5271;44.422;26.092;2023-04-15T08:33:26;1.40;;;1.40;;
10446;SDS011;5271;44.422;26.092;2023-04-15T08:35:55;1.40;;;1.40;;
10446;SDS011;5271;44.422;26.092;2023-04-15T08:38:22;1.30;;;1.30;;
10446;SDS011;5271;44.422;26.092;2023-04-15T08:40:49;1.40;;;1.40;;
10446;SDS011;5271;44.422;26.092;2023-04-15T08:43:17;1.30;;;1.30;;
10446;SDS011;5271;44.422;26.092;2023-04-15T08:45:48;1.40;;;1.40;;
10446;SDS011;5271;44.422;26.092;2023-04-15T08:48:16;1.20;;;1.20;;
10446;SDS011;5271;44.422;26.092;2023-04-15T08:50:44;1.30;;;1.30;;
10446;SDS011;5271;44.422;26.092;2023-04-15T08:53:13;1.40;;;1.40;;
10446;SDS011;5271;44.422;26.092;2023-04-15T08:55:41;1.27;;;1.27;;
10446;SDS011;5271;44.422;26.092;2023-04-15T08:58:09;1.30;;;1.30;;
10446;SDS011;5271;44.422;26.092;2023-04-15T09:00:37;1.20;;;1.20;;
10446;SDS011;5271;44.422;26.092;2023-04-15T09:03:04;1.20;;;1.20;;
10446;SDS011;5271;44.422;26.092;2023-04-15T09:05:32;1.20;;;1.20;;
10446;SDS011;5271;44.422;26.092;2023-04-15T09:07:59;1.20;;;1.20;;
10446;SDS011;5271;44.422;26.092;2023-04-15T09:10:27;1.20;;;1.20;;
10446;SDS011;5271;44.422;26.092;2023-04-15T09:12:55;1.20;;;1.20;;
10446;SDS011;5271;44.422;26.092;2023-04-15T09:15:22;1.20;;;1.20;;
10446;SDS011;5271;44.422;26.092;2023-04-15T09:17:51;1.20;;;1.20;;
10446;SDS011;5271;44.422;26.092;2023-04-15T09:20:18;1.30;;;1.30;;
10446;SDS011;5271;44.422;26.092;2023-04-15T09:22:46;1.20;;;1.20;;
10446;SDS011;5271;44.422;26.092;2023-04-15T09:25:30;1.20;;;1.20;;
10446;SDS011;5271;44.422;26.092;2023-04-15T09:27:58;1.10;;;1.10;;
10446;SDS011;5271;44.422;26.092;2023-04-15T09:30:26;1.20;;;1.20;;
10446;SDS011;5271;44.422;26.092;2023-04-15T09:32:54;1.20;;;1.20;;
10446;SDS011;5271;44.422;26.092;2023-04-15T09:35:24;1.20;;;1.20;;
10446;SDS011;5271;44.422;26.092;2023-04-15T09:37:51;1.10;;;1.10;;
10446;SDS011;5271;44.422;26.092;2023-04-15T09:40:33;1.10;;;1.10;;
10446;SDS011;5271;44.422;26.092;2023-04-15T09:43:01;1.10;;;1.10;;
10446;SDS011;5271;44.422;26.092;2023-04-15T09:45:29;1.10;;;1.10;;
10446;SDS011;5271;44.422;26.092;2023-04-15T09:47:56;1.10;;;1.10;;
10446;SDS011;5271;44.422;26.092;2023-04-15T09:50:26;1.17;;;1.17;;
10446;SDS011;5271;44.422;26.092;2023-04-15T09:52:53;1.20;;;1.20;;
10446;SDS011;5271;44.422;26.092;2023-04-15T09:55:20;1.17;;;1.17;;
10446;SDS011;5271;44.422;26.092;2023-04-15T09:57:49;1.20;;;1.20;;
10446;SDS011;5271;44.422;26.092;2023-04-15T10:00:15;1.20;;;1.20;;
10446;SDS011;5271;44.422;26.092;2023-04-15T10:02:42;1.17;;;1.17;;
10446;SDS011;5271;44.422;26.092;2023-04-15T10:05:12;1.20;;;1.20;;
10446;SDS011;5271;44.422;26.092;2023-04-15T10:07:40;1.20;;;1.20;;
10446;SDS011;5271;44.422;26.092;2023-04-15T10:10:08;1.27;;;1.27;;
10446;SDS011;5271;44.422;26.092;2023-04-15T10:12:36;1.20;;;1.20;;
10446;SDS011;5271;44.422;26.092;2023-04-15T10:15:05;1.20;;;1.20;;
10446;SDS011;5271;44.422;26.092;2023-04-15T10:17:34;1.20;;;1.20;;
10446;SDS011;5271;44.422;26.092;2023-04-15T10:20:02;1.20;;;1.20;;
10446;SDS011;5271;44.422;26.092;2023-04-15T10:22:31;1.10;;;1.10;;
10446;SDS011;5271;44.422;26.092;2023-04-15T10:24:58;1.20;;;1.20;;
10446;SDS011;5271;44.422;26.092;2023-04-15T10:27:26;1.20;;;1.20;;
10446;SDS011;5271;44.422;26.092;2023-04-15T10:29:53;1.20;;;1.20;;
10446;SDS011;5271;44.422;26.092;2023-04-15T10:32:23;1.30;;;1.30;;
10446;SDS011;5271;44.422;26.092;2023-04-15T10:34:51;1.30;;;1.30;;
10446;SDS011;5271;44.422;26.092;2023-04-15T10:37:19;1.20;;;1.20;;
10446;SDS011;5271;44.422;26.092;2023-04-15T10:39:47;1.30;;;1.30;;
10446;SDS011;5271;44.422;26.092;2023-04-15T10:42:15;1.30;;;1.30;;
10446;SDS011;5271;44.422;26.092;2023-04-15T10:44:43;1.30;;;1.30;;
10446;SDS011;5271;44.422;26.092;2023-04-15T10:47:14;1.40;;;1.40;;
10446;SDS011;5271;44.422;26.092;2023-04-15T10:49:46;1.20;;;1.20;;
10446;SDS011;5271;44.422;26.092;2023-04-15T10:52:14;1.30;;;1.30;;
10446;SDS011;5271;44.422;26.092;2023-04-15T10:54:42;1.30;;;1.30;;
10446;SDS011;5271;44.422;26.092;2023-04-15T10:57:13;1.20;;;1.20;;
10446;SDS011;5271;44.422;26.092;2023-04-15T11:00:00;1.23;;;1.23;;
10446;SDS011;5271;44.422;26.092;2023-04-15T11:02:42;1.10;;;1.10;;
10446;SDS011;5271;44.422;26.092;2023-04-15T11:05:12;1.20;;;1.20;;
10446;SDS011;5271;44.422;26.092;2023-04-15T11:07:50;1.20;;;1.20;;
10446;SDS011;5271;44.422;26.092;2023-04-15T11:10:49;1.30;;;1.30;;
10446;SDS011;5271;44.422;26.092;2023-04-15T11:13:20;1.20;;;1.20;;
10446;SDS011;5271;44.422;26.092;2023-04-15T11:15:56;1.20;;;1.20;;
10446;SDS011;5271;44.422;26.092;2023-04-15T11:18:26;1.30;;;1.30;;
10446;SDS011;5271;44.422;26.092;2023-04-15T11:20:57;1.30;;;1.30;;
10446;SDS011;5271;44.422;26.092;2023-04-15T11:23:28;1.30;;;1.30;;
10446;SDS011;5271;44.422;26.092;2023-04-15T11:25:57;1.30;;;1.30;;
10446;SDS011;5271;44.422;26.092;2023-04-15T11:28:25;1.30;;;1.30;;
10446;SDS011;5271;44.422;26.092;2023-04-15T11:30:53;1.30;;;1.30;;
10446;SDS011;5271;44.422;26.092;2023-04-15T11:33:21;1.30;;;1.30;;
10446;SDS011;5271;44.422;26.092;2023-04-15T11:35:49;1.30;;;1.30;;
10446;SDS011;5271;44.422;26.092;2023-04-15T11:38:18;1.30;;;1.30;;
10446;SDS011;5271;44.422;26.092;2023-04-15T11:40:46;1.20;;;1.20;;
10446;SDS011;5271;44.422;26.092;2023-04-15T11:43:14;1.20;;;1.20;;
10446;SDS011;5271;44.422;26.092;2023-04-15T11:45:52;1.30;;;1.30;;
10446;SDS011;5271;44.422;26.092;2023-04-15T11:48:21;1.30;;;1.30;;
10446;SDS011;5271;44.422;26.092;2023-04-15T11:50:52;1.30;;;1.30;;
10446;SDS011;5271;44.422;26.092;2023-04-15T11:53:21;1.30;;;1.30;;
10446;SDS011;5271;44.422;26.092;2023-04-15T11:55:50;1.30;;;1.30;;
10446;SDS011;5271;44.422;26.092;2023-04-15T11:58:18;1.37;;;1.37;;
10446;SDS011;5271;44.422;26.092;2023-04-15T12:00:46;1.30;;;1.30;;
10446;SDS011;5271;44.422;26.092;2023-04-15T12:03:18;1.40;;;1.40;;
10446;SDS011;5271;44.422;26.092;2023-04-15T12:11:28;1.33;;;1.33;;
10446;SDS011;5271;44.422;26.092;2023-04-15T12:13:57;1.23;;;1.23;;
10446;SDS011;5271;44.422;26.092;2023-04-15T12:16:27;1.30;;;1.30;;
10446;SDS011;5271;44.422;26.092;2023-04-15T12:18:55;1.20;;;1.20;;
10446;SDS011;5271;44.422;26.092;2023-04-15T12:21:24;1.30;;;1.30;;
10446;SDS011;5271;44.422;26.092;2023-04-15T12:23:54;1.30;;;1.30;;
10446;SDS011;5271;44.422;26.092;2023-04-15T12:26:26;1.20;;;1.20;;
10446;SDS011;5271;44.422;26.092;2023-04-15T12:28:54;1.30;;;1.30;;
10446;SDS011;5271;44.422;26.092;2023-04-15T12:31:21;1.30;;;1.30;;
10446;SDS011;5271;44.422;26.092;2023-04-15T12:33:48;1.30;;;1.30;;
10446;SDS011;5271;44.422;26.092;2023-04-15T12:36:15;1.23;;;1.23;;
10446;SDS011;5271;44.422;26.092;2023-04-15T12:38:42;1.30;;;1.30;;
10446;SDS011;5271;44.422;26.092;2023-04-15T12:41:10;1.30;;;1.30;;
10446;SDS011;5271;44.422;26.092;2023-04-15T12:43:37;1.20;;;1.20;;
10446;SDS011;5271;44.422;26.092;2023-04-15T12:46:04;1.30;;;1.30;;
10446;SDS011;5271;44.422;26.092;2023-04-15T12:48:32;1.20;;;1.20;;
10446;SDS011;5271;44.422;26.092;2023-04-15T12:50:59;1.20;;;1.20;;
10446;SDS011;5271;44.422;26.092;2023-04-15T12:53:26;1.20;;;1.20;;
10446;SDS011;5271;44.422;26.092;2023-04-15T12:55:53;1.30;;;1.30;;
10446;SDS011;5271;44.422;26.092;2023-04-15T12:58:21;1.20;;;1.20;;
10446;SDS011;5271;44.422;26.092;2023-04-15T13:00:48;1.30;;;1.30;;
10446;SDS011;5271;44.422;26.092;2023-04-15T13:03:16;1.30;;;1.30;;
10446;SDS011;5271;44.422;26.092;2023-04-15T13:05:43;1.30;;;1.30;;
10446;SDS011;5271;44.422;26.092;2023-04-15T13:08:10;1.20;;;1.20;;
10446;SDS011;5271;44.422;26.092;2023-04-15T13:10:37;1.30;;;1.30;;
10446;SDS011;5271;44.422;26.092;2023-04-15T13:13:04;1.20;;;1.20;;
10446;SDS011;5271;44.422;26.092;2023-04-15T13:15:32;1.30;;;1.30;;
10446;SDS011;5271;44.422;26.092;2023-04-15T13:17:59;1.40;;;1.40;;
10446;SDS011;5271;44.422;26.092;2023-04-15T13:20:26;1.30;;;1.30;;
10446;SDS011;5271;44.422;26.092;2023-04-15T13:22:53;1.30;;;1.30;;
10446;SDS011;5271;44.422;26.092;2023-04-15T13:25:20;1.40;;;1.40;;
10446;SDS011;5271;44.422;26.092;2023-04-15T13:27:48;1.47;;;1.47;;
10446;SDS011;5271;44.422;26.092;2023-04-15T13:30:15;1.40;;;1.40;;
10446;SDS011;5271;44.422;26.092;2023-04-15T13:32:43;1.40;;;1.40;;
10446;SDS011;5271;44.422;26.092;2023-04-15T13:35:10;1.40;;;1.40;;
10446;SDS011;5271;44.422;26.092;2023-04-15T13:37:37;1.40;;;1.40;;
10446;SDS011;5271;44.422;26.092;2023-04-15T13:40:05;1.40;;;1.40;;
10446;SDS011;5271;44.422;26.092;2023-04-15T13:42:32;1.40;;;1.40;;
10446;SDS011;5271;44.422;26.092;2023-04-15T13:44:59;1.40;;;1.40;;
10446;SDS011;5271;44.422;26.092;2023-04-15T13:47:26;1.40;;;1.40;;
10446;SDS011;5271;44.422;26.092;2023-04-15T13:49:54;1.30;;;1.30;;
10446;SDS011;5271;44.422;26.092;2023-04-15T13:52:21;1.40;;;1.40;;
10446;SDS011;5271;44.422;26.092;2023-04-15T13:54:48;1.40;;;1.40;;
10446;SDS011;5271;44.422;26.092;2023-04-15T13:57:16;1.40;;;1.40;;
10446;SDS011;5271;44.422;26.092;2023-04-15T13:59:42;1.40;;;1.40;;
10446;SDS011;5271;44.422;26.092;2023-04-15T14:02:09;1.40;;;1.40;;
10446;SDS011;5271;44.422;26.092;2023-04-15T14:04:36;1.30;;;1.30;;
10446;SDS011;5271;44.422;26.092;2023-04-15T14:07:04;1.40;;;1.40;;
10446;SDS011;5271;44.422;26.092;2023-04-15T14:09:31;1.30;;;1.30;;
10446;SDS011;5271;44.422;26.092;2023-04-15T14:11:58;1.30;;;1.30;;
10446;SDS011;5271;44.422;26.092;2023-04-15T14:14:26;1.20;;;1.20;;
10446;SDS011;5271;44.422;26.092;2023-04-15T14:16:53;1.20;;;1.20;;
10446;SDS011;5271;44.422;26.092;2023-04-15T14:19:21;1.30;;;1.30;;
10446;SDS011;5271;44.422;26.092;2023-04-15T14:21:49;1.40;;;1.40;;
10446;SDS011;5271;44.422;26.092;2023-04-15T14:24:17;1.40;;;1.40;;
10446;SDS011;5271;44.422;26.092;2023-04-15T14:26:44;1.30;;;1.30;;
10446;SDS011;5271;44.422;26.092;2023-04-15T14:29:10;1.30;;;1.30;;
10446;SDS011;5271;44.422;26.092;2023-04-15T14:31:37;1.30;;;1.30;;
10446;SDS011;5271;44.422;26.092;2023-04-15T14:34:04;1.33;;;1.33;;
10446;SDS011;5271;44.422;26.092;2023-04-15T14:36:31;1.40;;;1.40;;
10446;SDS011;5271;44.422;26.092;2023-04-15T14:38:58;1.33;;;1.33;;
10446;SDS011;5271;44.422;26.092;2023-04-15T14:41:26;1.30;;;1.30;;
10446;SDS011;5271;44.422;26.092;2023-04-15T14:43:53;1.30;;;1.30;;
10446;SDS011;5271;44.422;26.092;2023-04-15T14:46:20;1.40;;;1.40;;
10446;SDS011;5271;44.422;26.092;2023-04-15T14:48:47;1.37;;;1.37;;
10446;SDS011;5271;44.422;26.092;2023-04-15T14:51:14;1.40;;;1.40;;
10446;SDS011;5271;44.422;26.092;2023-04-15T14:53:41;1.50;;;1.50;;
10446;SDS011;5271;44.422;26.092;2023-04-15T14:56:09;1.40;;;1.40;;
10446;SDS011;5271;44.422;26.092;2023-04-15T14:58:37;1.30;;;1.30;;